JST774 YMML-YPAD
Flight info
| Callsign | JST774 |
|---|---|
| Flight time | 1h 3m |
| Altitude | 38000 |
| Route | ML H345 AD |
| Aircraft | A320/M-SDE3FGHIRWY/LB1 |
Departure
| Time | 2026-05-07 11:11 |
|---|---|
| Airport | Melbourne Airport (YMML) |
Arrival
| Time | 2026-05-07 12:15 |
|---|---|
| Airport | Adelaide International Airport (YPAD) |
| Time | Latitude | Longitude | Altitude | Speed | Heading |
|---|---|---|---|---|---|
| 2026-05-07 10:50 | -37.66760 | 144.84900 | 400 ft | 0 kts | 82° |
| 2026-05-07 11:05 | -37.66762 | 144.84888 | 400 ft | 4 kts | 77° |
| 2026-05-07 11:05 | -37.66771 | 144.84857 | 404 ft | 4 kts | 52° |
| 2026-05-07 11:06 | -37.66790 | 144.84840 | 403 ft | 3 kts | 356° |
| 2026-05-07 11:06 | -37.66798 | 144.84841 | 403 ft | 0 kts | 353° |
| 2026-05-07 11:08 | -37.66785 | 144.84839 | 404 ft | 4 kts | 353° |
| 2026-05-07 11:08 | -37.66749 | 144.84831 | 399 ft | 7 kts | 346° |
| 2026-05-07 11:08 | -37.66695 | 144.84810 | 401 ft | 9 kts | 346° |
| 2026-05-07 11:09 | -37.66623 | 144.84794 | 403 ft | 11 kts | 356° |
| 2026-05-07 11:09 | -37.66540 | 144.84797 | 406 ft | 13 kts | 347° |
| 2026-05-07 11:09 | -37.66448 | 144.84775 | 409 ft | 14 kts | 1° |
| 2026-05-07 11:09 | -37.66341 | 144.84787 | 409 ft | 17 kts | 5° |
| 2026-05-07 11:10 | -37.66232 | 144.84753 | 413 ft | 15 kts | 307° |
| 2026-05-07 11:10 | -37.66220 | 144.84690 | 413 ft | 0 kts | 272° |
| 2026-05-07 11:11 | -37.66209 | 144.84464 | 411 ft | 69 kts | 274° |
| 2026-05-07 11:11 | -37.66162 | 144.83540 | 420 ft | 137 kts | 272° |
| 2026-05-07 11:11 | -37.66084 | 144.82312 | 1179 ft | 136 kts | 269° |
| 2026-05-07 11:12 | -37.65986 | 144.81123 | 2062 ft | 137 kts | 271° |
| 2026-05-07 11:12 | -37.65864 | 144.79845 | 2654 ft | 157 kts | 271° |
| 2026-05-07 11:12 | -37.65724 | 144.78398 | 3145 ft | 176 kts | 270° |
| 2026-05-07 11:12 | -37.65644 | 144.76758 | 3637 ft | 197 kts | 268° |
| 2026-05-07 11:13 | -37.65574 | 144.74942 | 4205 ft | 223 kts | 268° |
| 2026-05-07 11:13 | -37.65487 | 144.72904 | 5120 ft | 239 kts | 268° |
| 2026-05-07 11:13 | -37.65383 | 144.70786 | 6347 ft | 244 kts | 268° |
| 2026-05-07 11:13 | -37.65268 | 144.68627 | 7496 ft | 250 kts | 268° |
| 2026-05-07 11:14 | -37.65137 | 144.66407 | 8594 ft | 259 kts | 269° |
| 2026-05-07 11:14 | -37.64672 | 144.64143 | 9679 ft | 276 kts | 282° |
| 2026-05-07 11:14 | -37.63940 | 144.61841 | 10510 ft | 293 kts | 282° |
| 2026-05-07 11:14 | -37.63157 | 144.59368 | 11143 ft | 311 kts | 282° |
| 2026-05-07 11:15 | -37.62331 | 144.56803 | 12028 ft | 319 kts | 282° |
| 2026-05-07 11:15 | -37.61481 | 144.54187 | 13006 ft | 325 kts | 282° |
| 2026-05-07 11:15 | -37.60616 | 144.51530 | 13984 ft | 330 kts | 282° |
| 2026-05-07 11:15 | -37.59738 | 144.48833 | 14830 ft | 335 kts | 282° |
| 2026-05-07 11:16 | -37.58852 | 144.46103 | 15715 ft | 337 kts | 282° |
| 2026-05-07 11:16 | -37.57959 | 144.43355 | 16594 ft | 340 kts | 282° |
| 2026-05-07 11:16 | -37.57061 | 144.40581 | 17465 ft | 344 kts | 283° |
| 2026-05-07 11:16 | -37.56153 | 144.37778 | 18341 ft | 347 kts | 283° |
| 2026-05-07 11:17 | -37.55237 | 144.34954 | 19121 ft | 349 kts | 283° |
| 2026-05-07 11:17 | -37.54313 | 144.32107 | 19885 ft | 353 kts | 283° |
| 2026-05-07 11:17 | -37.53381 | 144.29233 | 20666 ft | 356 kts | 283° |
| 2026-05-07 11:17 | -37.52439 | 144.26330 | 21416 ft | 360 kts | 283° |
| 2026-05-07 11:18 | -37.51486 | 144.23400 | 22121 ft | 363 kts | 284° |
| 2026-05-07 11:18 | -37.50526 | 144.20449 | 22841 ft | 366 kts | 284° |
| 2026-05-07 11:18 | -37.49558 | 144.17471 | 23563 ft | 369 kts | 284° |
| 2026-05-07 11:18 | -37.48580 | 144.14465 | 24196 ft | 373 kts | 284° |
| 2026-05-07 11:19 | -37.47592 | 144.11430 | 24785 ft | 376 kts | 284° |
| 2026-05-07 11:19 | -37.46596 | 144.08368 | 25359 ft | 380 kts | 284° |
| 2026-05-07 11:19 | -37.45591 | 144.05277 | 25921 ft | 383 kts | 284° |
| 2026-05-07 11:19 | -37.44572 | 144.02162 | 26478 ft | 387 kts | 284° |
| 2026-05-07 11:20 | -37.43537 | 143.99019 | 27031 ft | 391 kts | 284° |
| 2026-05-07 11:20 | -37.42491 | 143.95848 | 27584 ft | 394 kts | 284° |
| 2026-05-07 11:20 | -37.41449 | 143.92690 | 28126 ft | 398 kts | 284° |
| 2026-05-07 11:20 | -37.40387 | 143.89463 | 28673 ft | 402 kts | 285° |
| 2026-05-07 11:21 | -37.39315 | 143.86201 | 29205 ft | 405 kts | 284° |
| 2026-05-07 11:21 | -37.38234 | 143.82908 | 29735 ft | 409 kts | 285° |
| 2026-05-07 11:21 | -37.37143 | 143.79589 | 30264 ft | 413 kts | 285° |
| 2026-05-07 11:21 | -37.36037 | 143.76244 | 30720 ft | 417 kts | 285° |
| 2026-05-07 11:22 | -37.34917 | 143.72870 | 31170 ft | 420 kts | 285° |
| 2026-05-07 11:22 | -37.33790 | 143.69471 | 31652 ft | 423 kts | 285° |
| 2026-05-07 11:22 | -37.32656 | 143.66044 | 32160 ft | 425 kts | 285° |
| 2026-05-07 11:22 | -37.31516 | 143.62624 | 32825 ft | 424 kts | 285° |
| 2026-05-07 11:23 | -37.30380 | 143.59217 | 33527 ft | 422 kts | 285° |
| 2026-05-07 11:23 | -37.29254 | 143.55826 | 34219 ft | 421 kts | 285° |
| 2026-05-07 11:23 | -37.28128 | 143.52441 | 34792 ft | 420 kts | 285° |
| 2026-05-07 11:23 | -37.27001 | 143.49061 | 35305 ft | 419 kts | 286° |
| 2026-05-07 11:24 | -37.25878 | 143.45697 | 35825 ft | 418 kts | 286° |
| 2026-05-07 11:24 | -37.24754 | 143.42333 | 36329 ft | 418 kts | 286° |
| 2026-05-07 11:24 | -37.23632 | 143.38974 | 36834 ft | 417 kts | 286° |
| 2026-05-07 11:24 | -37.22508 | 143.35615 | 37330 ft | 417 kts | 286° |
| 2026-05-07 11:25 | -37.21382 | 143.32268 | 37817 ft | 416 kts | 287° |
| 2026-05-07 11:25 | -37.20256 | 143.28922 | 38213 ft | 417 kts | 287° |
| 2026-05-07 11:25 | -37.18069 | 143.22216 | 38290 ft | 413 kts | 285° |
| 2026-05-07 11:26 | -37.16060 | 143.15497 | 38294 ft | 411 kts | 284° |
| 2026-05-07 11:26 | -37.14063 | 143.08778 | 38299 ft | 412 kts | 284° |
| 2026-05-07 11:27 | -37.12016 | 143.02073 | 38300 ft | 412 kts | 285° |
| 2026-05-07 11:27 | -37.09949 | 142.95371 | 38291 ft | 413 kts | 285° |
| 2026-05-07 11:28 | -37.07879 | 142.88655 | 38310 ft | 414 kts | 285° |
| 2026-05-07 11:28 | -37.05807 | 142.81935 | 38315 ft | 414 kts | 285° |
| 2026-05-07 11:29 | -37.03730 | 142.75218 | 38304 ft | 414 kts | 285° |
| 2026-05-07 11:29 | -37.01647 | 142.68499 | 38310 ft | 414 kts | 285° |
| 2026-05-07 11:30 | -36.99572 | 142.61818 | 38315 ft | 415 kts | 285° |
| 2026-05-07 11:30 | -36.97484 | 142.55095 | 38325 ft | 415 kts | 285° |
| 2026-05-07 11:31 | -36.95389 | 142.48370 | 38312 ft | 415 kts | 286° |
| 2026-05-07 11:31 | -36.93288 | 142.41639 | 38323 ft | 416 kts | 286° |
| 2026-05-07 11:32 | -36.90116 | 142.31555 | 38331 ft | 416 kts | 286° |
| 2026-05-07 11:33 | -36.87992 | 142.24827 | 38316 ft | 416 kts | 287° |
| 2026-05-07 11:33 | -36.85865 | 142.18101 | 38332 ft | 417 kts | 287° |
| 2026-05-07 11:34 | -36.83738 | 142.11373 | 38339 ft | 417 kts | 287° |
| 2026-05-07 11:34 | -36.81614 | 142.04642 | 38349 ft | 417 kts | 287° |
| 2026-05-07 11:35 | -36.79480 | 141.97914 | 38341 ft | 417 kts | 287° |
| 2026-05-07 11:35 | -36.77338 | 141.91186 | 38342 ft | 417 kts | 287° |
| 2026-05-07 11:36 | -36.75197 | 141.84460 | 38352 ft | 418 kts | 287° |
| 2026-05-07 11:36 | -36.73040 | 141.77735 | 38343 ft | 418 kts | 287° |
| 2026-05-07 11:37 | -36.70877 | 141.71010 | 38355 ft | 418 kts | 288° |
| 2026-05-07 11:37 | -36.68711 | 141.64289 | 38361 ft | 418 kts | 287° |
| 2026-05-07 11:38 | -36.66555 | 141.57567 | 38363 ft | 418 kts | 287° |
| 2026-05-07 11:38 | -36.64393 | 141.50847 | 38373 ft | 418 kts | 288° |
| 2026-05-07 11:39 | -36.62210 | 141.44130 | 38374 ft | 418 kts | 288° |
| 2026-05-07 11:39 | -36.60033 | 141.37424 | 38374 ft | 418 kts | 288° |
| 2026-05-07 11:40 | -36.57864 | 141.30759 | 38370 ft | 418 kts | 288° |
| 2026-05-07 11:40 | -36.55684 | 141.24052 | 38372 ft | 419 kts | 288° |
| 2026-05-07 11:41 | -36.53492 | 141.17344 | 38373 ft | 419 kts | 288° |
| 2026-05-07 11:41 | -36.51292 | 141.10634 | 38359 ft | 419 kts | 288° |
| 2026-05-07 11:42 | -36.49095 | 141.03926 | 38388 ft | 419 kts | 288° |
| 2026-05-07 11:42 | -36.46894 | 140.97220 | 38381 ft | 419 kts | 288° |
| 2026-05-07 11:43 | -36.44685 | 140.90519 | 38389 ft | 419 kts | 288° |
| 2026-05-07 11:43 | -36.42470 | 140.83818 | 38378 ft | 419 kts | 289° |
| 2026-05-07 11:44 | -36.40248 | 140.77125 | 38390 ft | 419 kts | 289° |
| 2026-05-07 11:44 | -36.37221 | 140.70905 | 38398 ft | 426 kts | 305° |
| 2026-05-07 11:45 | -36.33559 | 140.65128 | 38402 ft | 426 kts | 305° |
| 2026-05-07 11:45 | -36.29899 | 140.59356 | 38402 ft | 426 kts | 305° |
| 2026-05-07 11:46 | -36.26240 | 140.53588 | 38408 ft | 426 kts | 305° |
| 2026-05-07 11:46 | -36.22577 | 140.47825 | 38416 ft | 425 kts | 305° |
| 2026-05-07 11:47 | -36.18915 | 140.42077 | 38412 ft | 425 kts | 305° |
| 2026-05-07 11:47 | -36.15838 | 140.37252 | 38112 ft | 439 kts | 305° |
| 2026-05-07 11:47 | -36.13941 | 140.34273 | 37835 ft | 442 kts | 305° |
| 2026-05-07 11:48 | -36.12038 | 140.31286 | 37563 ft | 442 kts | 305° |
| 2026-05-07 11:48 | -36.10135 | 140.28304 | 37293 ft | 440 kts | 305° |
| 2026-05-07 11:48 | -36.08241 | 140.25353 | 36983 ft | 436 kts | 305° |
| 2026-05-07 11:48 | -36.06364 | 140.22439 | 36536 ft | 432 kts | 305° |
| 2026-05-07 11:49 | -36.04500 | 140.19550 | 36067 ft | 428 kts | 305° |
| 2026-05-07 11:49 | -36.02648 | 140.16679 | 35582 ft | 426 kts | 305° |
| 2026-05-07 11:49 | -36.00813 | 140.13829 | 35102 ft | 423 kts | 305° |
| 2026-05-07 11:49 | -35.98990 | 140.10983 | 34590 ft | 421 kts | 304° |
| 2026-05-07 11:50 | -35.97177 | 140.08152 | 34043 ft | 419 kts | 304° |
| 2026-05-07 11:50 | -35.95375 | 140.05345 | 33529 ft | 415 kts | 304° |
| 2026-05-07 11:50 | -35.93588 | 140.02564 | 33024 ft | 412 kts | 304° |
| 2026-05-07 11:50 | -35.91810 | 139.99805 | 32523 ft | 409 kts | 304° |
| 2026-05-07 11:51 | -35.90047 | 139.97071 | 32039 ft | 406 kts | 304° |
| 2026-05-07 11:51 | -35.88299 | 139.94360 | 31567 ft | 402 kts | 304° |
| 2026-05-07 11:51 | -35.86560 | 139.91670 | 31098 ft | 400 kts | 304° |
| 2026-05-07 11:51 | -35.84831 | 139.89005 | 30643 ft | 397 kts | 304° |
| 2026-05-07 11:52 | -35.83114 | 139.86355 | 30142 ft | 394 kts | 304° |
| 2026-05-07 11:52 | -35.81415 | 139.83733 | 29726 ft | 389 kts | 304° |
| 2026-05-07 11:52 | -35.79734 | 139.81143 | 29299 ft | 385 kts | 304° |
| 2026-05-07 11:52 | -35.78068 | 139.78578 | 28908 ft | 381 kts | 304° |
| 2026-05-07 11:53 | -35.76422 | 139.76044 | 28498 ft | 377 kts | 304° |
| 2026-05-07 11:53 | -35.74791 | 139.73533 | 28076 ft | 373 kts | 304° |
| 2026-05-07 11:53 | -35.73178 | 139.71053 | 27674 ft | 369 kts | 304° |
| 2026-05-07 11:53 | -35.71580 | 139.68597 | 27262 ft | 366 kts | 304° |
| 2026-05-07 11:54 | -35.69994 | 139.66158 | 26828 ft | 363 kts | 304° |
| 2026-05-07 11:54 | -35.68426 | 139.63745 | 26416 ft | 361 kts | 304° |
| 2026-05-07 11:54 | -35.66863 | 139.61344 | 25977 ft | 358 kts | 303° |
| 2026-05-07 11:54 | -35.65310 | 139.58961 | 25540 ft | 356 kts | 303° |
| 2026-05-07 11:55 | -35.63763 | 139.56590 | 25094 ft | 355 kts | 303° |
| 2026-05-07 11:55 | -35.63260 | 139.55820 | 24948 ft | 354 kts | 303° |
| 2026-05-07 11:56 | -35.62335 | 139.54423 | 24953 ft | 344 kts | 304° |
| 2026-05-07 11:56 | -35.60820 | 139.52120 | 24269 ft | 351 kts | 303° |
| 2026-05-07 11:56 | -35.59300 | 139.49784 | 23743 ft | 352 kts | 303° |
| 2026-05-07 11:57 | -35.57778 | 139.47445 | 23277 ft | 349 kts | 303° |
| 2026-05-07 11:57 | -35.56267 | 139.45131 | 22840 ft | 346 kts | 303° |
| 2026-05-07 11:57 | -35.54766 | 139.42839 | 22393 ft | 343 kts | 304° |
| 2026-05-07 11:57 | -35.53277 | 139.40570 | 21944 ft | 340 kts | 304° |
| 2026-05-07 11:58 | -35.51798 | 139.38320 | 21511 ft | 338 kts | 304° |
| 2026-05-07 11:58 | -35.50326 | 139.36083 | 21074 ft | 336 kts | 304° |
| 2026-05-07 11:58 | -35.48864 | 139.33858 | 20628 ft | 334 kts | 304° |
| 2026-05-07 11:58 | -35.47408 | 139.31647 | 20200 ft | 333 kts | 304° |
| 2026-05-07 11:59 | -35.45956 | 139.29445 | 19770 ft | 332 kts | 304° |
| 2026-05-07 11:59 | -35.44507 | 139.27245 | 19341 ft | 331 kts | 304° |
| 2026-05-07 11:59 | -35.43009 | 139.25101 | 18898 ft | 333 kts | 311° |
| 2026-05-07 11:59 | -35.41180 | 139.23336 | 18434 ft | 338 kts | 325° |
| 2026-05-07 12:00 | -35.39048 | 139.22101 | 17980 ft | 340 kts | 336° |
| 2026-05-07 12:00 | -35.36833 | 139.21090 | 17537 ft | 339 kts | 336° |
| 2026-05-07 12:00 | -35.34630 | 139.20070 | 17095 ft | 338 kts | 336° |
| 2026-05-07 12:00 | -35.32436 | 139.19048 | 16661 ft | 337 kts | 336° |
| 2026-05-07 12:01 | -35.30247 | 139.18029 | 16223 ft | 337 kts | 336° |
| 2026-05-07 12:01 | -35.28059 | 139.17012 | 15790 ft | 336 kts | 336° |
| 2026-05-07 12:01 | -35.25872 | 139.15997 | 15345 ft | 336 kts | 336° |
| 2026-05-07 12:01 | -35.23683 | 139.14979 | 14923 ft | 336 kts | 336° |
| 2026-05-07 12:02 | -35.21493 | 139.13963 | 14492 ft | 337 kts | 336° |
| 2026-05-07 12:02 | -35.19298 | 139.12950 | 14022 ft | 338 kts | 337° |
| 2026-05-07 12:02 | -35.17103 | 139.11936 | 13575 ft | 337 kts | 337° |
| 2026-05-07 12:02 | -35.14914 | 139.10925 | 13093 ft | 337 kts | 337° |
| 2026-05-07 12:03 | -35.12713 | 139.09908 | 12558 ft | 339 kts | 337° |
| 2026-05-07 12:03 | -35.10535 | 139.08901 | 12038 ft | 340 kts | 338° |
| 2026-05-07 12:03 | -35.08323 | 139.07869 | 11512 ft | 341 kts | 335° |
| 2026-05-07 12:03 | -35.06278 | 139.06431 | 10989 ft | 339 kts | 320° |
| 2026-05-07 12:04 | -35.04533 | 139.04525 | 10474 ft | 337 kts | 314° |
| 2026-05-07 12:04 | -35.02825 | 139.02593 | 9787 ft | 331 kts | 314° |
| 2026-05-07 12:04 | -35.01166 | 139.00740 | 9317 ft | 316 kts | 314° |
| 2026-05-07 12:04 | -34.99565 | 138.98962 | 8692 ft | 308 kts | 314° |
| 2026-05-07 12:05 | -34.97996 | 138.97215 | 8047 ft | 302 kts | 314° |
| 2026-05-07 12:05 | -34.96466 | 138.95505 | 7538 ft | 295 kts | 312° |
| 2026-05-07 12:05 | -34.95169 | 138.93620 | 7111 ft | 286 kts | 298° |
| 2026-05-07 12:05 | -34.94145 | 138.91573 | 6661 ft | 278 kts | 296° |
| 2026-05-07 12:06 | -34.93165 | 138.89626 | 6398 ft | 261 kts | 297° |
| 2026-05-07 12:06 | -34.92227 | 138.87767 | 6281 ft | 258 kts | 296° |
| 2026-05-07 12:06 | -34.91242 | 138.85952 | 6139 ft | 258 kts | 308° |
| 2026-05-07 12:06 | -34.89908 | 138.84442 | 5729 ft | 265 kts | 318° |
| 2026-05-07 12:07 | -34.88450 | 138.83094 | 5505 ft | 261 kts | 321° |
| 2026-05-07 12:07 | -34.86973 | 138.81815 | 5187 ft | 260 kts | 322° |
| 2026-05-07 12:07 | -34.85504 | 138.80556 | 4912 ft | 256 kts | 322° |
| 2026-05-07 12:07 | -34.84076 | 138.79295 | 4368 ft | 251 kts | 316° |
| 2026-05-07 12:08 | -34.82975 | 138.77784 | 4196 ft | 226 kts | 298° |
| 2026-05-07 12:08 | -34.82336 | 138.76121 | 4091 ft | 210 kts | 283° |
| 2026-05-07 12:08 | -34.82091 | 138.74452 | 3993 ft | 190 kts | 269° |
| 2026-05-07 12:08 | -34.82167 | 138.72927 | 3823 ft | 173 kts | 255° |
| 2026-05-07 12:09 | -34.82490 | 138.71578 | 3641 ft | 160 kts | 243° |
| 2026-05-07 12:09 | -34.83002 | 138.70423 | 3448 ft | 151 kts | 232° |
| 2026-05-07 12:09 | -34.83646 | 138.69444 | 3258 ft | 146 kts | 227° |
| 2026-05-07 12:09 | -34.84292 | 138.68509 | 3062 ft | 142 kts | 227° |
| 2026-05-07 12:10 | -34.84919 | 138.67600 | 2871 ft | 138 kts | 227° |
| 2026-05-07 12:10 | -34.85534 | 138.66709 | 2685 ft | 137 kts | 227° |
| 2026-05-07 12:10 | -34.86145 | 138.65823 | 2482 ft | 136 kts | 226° |
| 2026-05-07 12:10 | -34.86730 | 138.64974 | 2304 ft | 124 kts | 226° |
| 2026-05-07 12:11 | -34.87266 | 138.64194 | 2097 ft | 119 kts | 226° |
| 2026-05-07 12:11 | -34.87785 | 138.63441 | 1884 ft | 115 kts | 227° |
| 2026-05-07 12:11 | -34.88297 | 138.62699 | 1674 ft | 113 kts | 227° |
| 2026-05-07 12:11 | -34.88804 | 138.61965 | 1471 ft | 114 kts | 227° |
| 2026-05-07 12:12 | -34.89316 | 138.61223 | 1258 ft | 114 kts | 227° |
| 2026-05-07 12:12 | -34.89825 | 138.60484 | 1056 ft | 114 kts | 226° |
| 2026-05-07 12:12 | -34.90327 | 138.59751 | 914 ft | 111 kts | 229° |
| 2026-05-07 12:12 | -34.90814 | 138.59000 | 1003 ft | 113 kts | 228° |
| 2026-05-07 12:13 | -34.91314 | 138.58283 | 1112 ft | 113 kts | 225° |
| 2026-05-07 12:13 | -34.91857 | 138.57556 | 878 ft | 112 kts | 224° |
| 2026-05-07 12:13 | -34.92371 | 138.56819 | 635 ft | 115 kts | 229° |
| 2026-05-07 12:13 | -34.92861 | 138.56080 | 467 ft | 112 kts | 229° |
| 2026-05-07 12:14 | -34.93364 | 138.55341 | 278 ft | 114 kts | 229° |
| 2026-05-07 12:14 | -34.93863 | 138.54609 | 149 ft | 112 kts | 227° |
| 2026-05-07 12:14 | -34.94365 | 138.53895 | 40 ft | 104 kts | 227° |
| 2026-05-07 12:14 | -34.94757 | 138.53328 | 30 ft | 65 kts | 230° |
| 2026-05-07 12:15 | -34.94936 | 138.53061 | 27 ft | 19 kts | 231° |
| 2026-05-07 12:15 | -34.94879 | 138.52987 | 29 ft | 19 kts | 11° |
| 2026-05-07 12:15 | -34.94743 | 138.53051 | 29 ft | 23 kts | 21° |
| 2026-05-07 12:15 | -34.94584 | 138.53125 | 31 ft | 25 kts | 21° |
| 2026-05-07 12:16 | -34.94507 | 138.53208 | 26 ft | 14 kts | 95° |
| 2026-05-07 12:16 | -34.94503 | 138.53347 | 31 ft | 19 kts | 60° |
| 2026-05-07 12:16 | -34.94408 | 138.53480 | 27 ft | 23 kts | 52° |
| 2026-05-07 12:16 | -34.94310 | 138.53625 | 29 ft | 22 kts | 50° |
| 2026-05-07 12:17 | -34.94212 | 138.53637 | 29 ft | 15 kts | 352° |
| 2026-05-07 12:17 | -34.94147 | 138.53694 | 28 ft | 9 kts | 48° |
| 2026-05-07 12:17 | -34.94099 | 138.53753 | 29 ft | 9 kts | 22° |
| 2026-05-07 12:17 | -34.94043 | 138.53710 | 30 ft | 9 kts | 321° |
| 2026-05-07 12:18 | -34.94032 | 138.53699 | 26 ft | 0 kts | 321° |